createdAt,value
2018-07-27T00:00:26.601Z,24.08
2018-07-27T00:02:55.352Z,24.06
2018-07-27T00:05:24.324Z,24.02
2018-07-27T00:07:52.799Z,23.96
2018-07-27T00:10:21.316Z,23.90
2018-07-27T00:12:49.764Z,23.92
2018-07-27T00:15:18.205Z,23.99
2018-07-27T00:17:46.673Z,24.04
2018-07-27T00:20:15.143Z,24.06
2018-07-27T00:22:43.896Z,24.01
2018-07-27T00:25:12.706Z,23.90
2018-07-27T00:27:41.429Z,23.84
2018-07-27T00:30:11.217Z,23.85
2018-07-27T00:32:39.909Z,23.90
2018-07-27T00:35:08.469Z,23.93
2018-07-27T00:37:37.909Z,23.93
2018-07-27T00:40:06.575Z,23.83
2018-07-27T00:42:35.384Z,23.71
2018-07-27T00:45:03.980Z,23.69
2018-07-27T00:47:32.481Z,23.73
2018-07-27T00:50:01.433Z,23.77
2018-07-27T00:52:29.981Z,23.73
2018-07-27T00:54:58.457Z,23.71
2018-07-27T00:57:27.501Z,23.71
2018-07-27T00:59:56.277Z,23.59
2018-07-27T01:02:24.730Z,23.52
2018-07-27T01:04:53.645Z,23.50
2018-07-27T01:07:22.382Z,23.54
2018-07-27T01:09:50.913Z,23.54
2018-07-27T01:12:19.731Z,23.45
2018-07-27T01:14:48.433Z,23.30
2018-07-27T01:17:16.905Z,23.18
2018-07-27T01:19:45.761Z,23.14
2018-07-27T01:22:14.423Z,23.19
2018-07-27T01:24:42.893Z,23.18
2018-07-27T01:27:11.740Z,23.17
2018-07-27T01:29:40.192Z,23.09
2018-07-27T01:32:11.892Z,23.06
2018-07-27T01:34:40.570Z,23.07
2018-07-27T01:37:09.049Z,23.08
2018-07-27T01:39:37.745Z,21.98
2018-07-27T01:42:06.246Z,23.03
2018-07-27T01:44:34.833Z,22.94
2018-07-27T01:47:03.278Z,22.89
2018-07-27T01:49:32.652Z,22.82
2018-07-27T01:52:01.147Z,22.75
2018-07-27T01:54:29.618Z,22.66
2018-07-27T01:56:59.110Z,22.58
2018-07-27T01:59:27.849Z,22.53
2018-07-27T02:01:56.731Z,22.60
2018-07-27T02:04:25.500Z,22.65
2018-07-27T02:06:53.981Z,22.58
2018-07-27T02:09:22.581Z,22.51
2018-07-27T02:11:51.224Z,22.45
2018-07-27T02:14:19.736Z,22.43
2018-07-27T02:16:48.192Z,22.46
2018-07-27T02:19:16.894Z,22.55
2018-07-27T02:21:46.095Z,22.63
2018-07-27T02:24:14.540Z,22.68
2018-07-27T02:26:43.244Z,22.72
2018-07-27T02:29:12.255Z,22.63
2018-07-27T02:31:40.713Z,22.51
2018-07-27T02:34:09.606Z,22.42
2018-07-27T02:36:38.162Z,22.37
2018-07-27T02:39:08.894Z,22.34
2018-07-27T02:41:37.813Z,22.37
2018-07-27T02:44:06.665Z,22.49
2018-07-27T02:46:35.333Z,22.55
2018-07-27T02:49:04.282Z,22.57
2018-07-27T02:51:32.763Z,22.61
2018-07-27T02:54:01.202Z,22.54
2018-07-27T02:56:30.234Z,22.46
2018-07-27T02:58:58.679Z,22.44
2018-07-27T03:01:27.397Z,22.44
2018-07-27T03:03:56.333Z,22.51
2018-07-27T03:06:24.800Z,22.59
2018-07-27T03:08:53.281Z,22.63
2018-07-27T03:11:22.033Z,22.62
2018-07-27T03:13:50.885Z,22.53
2018-07-27T03:16:19.557Z,22.42
2018-07-27T03:18:48.439Z,22.36
2018-07-27T03:21:16.922Z,22.29
2018-07-27T03:23:45.369Z,22.26
2018-07-27T03:26:14.461Z,22.29
2018-07-27T03:28:42.913Z,22.41
2018-07-27T03:31:12.460Z,22.48
2018-07-27T03:33:41.121Z,22.59
2018-07-27T03:36:09.577Z,22.66
2018-07-27T03:38:40.121Z,22.69
2018-07-27T03:41:10.177Z,22.75
2018-07-27T03:43:38.830Z,22.79
2018-07-27T03:46:07.781Z,22.79
2018-07-27T03:48:37.044Z,22.70
2018-07-27T03:51:05.533Z,22.62
2018-07-27T03:53:34.213Z,22.13
2018-07-27T03:56:03.003Z,22.71
2018-07-27T03:58:31.681Z,22.67
2018-07-27T04:01:00.131Z,22.60
2018-07-27T04:03:29.153Z,22.57
2018-07-27T04:05:57.853Z,22.60
2018-07-27T04:08:26.592Z,22.65
2018-07-27T04:10:55.516Z,22.70
2018-07-27T04:13:23.962Z,22.76
2018-07-27T04:15:52.409Z,22.82
2018-07-27T04:18:21.265Z,22.80
2018-07-27T04:20:50.058Z,22.77
2018-07-27T04:23:18.500Z,22.76
2018-07-27T04:25:47.268Z,22.82
2018-07-27T04:28:16.047Z,22.92
2018-07-27T04:30:44.505Z,22.97
2018-07-27T04:33:13.526Z,23.10
2018-07-27T04:35:42.012Z,23.15
2018-07-27T04:38:10.777Z,23.18
2018-07-27T04:40:39.734Z,23.11
2018-07-27T04:43:08.165Z,23.07
2018-07-27T04:45:36.703Z,23.06
2018-07-27T04:48:05.806Z,23.11
2018-07-27T04:50:34.527Z,23.19
2018-07-27T04:53:02.982Z,23.21
2018-07-27T04:55:32.065Z,23.19
2018-07-27T04:58:00.559Z,23.24
2018-07-27T05:00:29.255Z,23.31
2018-07-27T05:02:58.429Z,23.36
2018-07-27T05:05:26.933Z,23.42
2018-07-27T05:07:55.361Z,23.43
2018-07-27T05:10:28.321Z,23.45
2018-07-27T05:12:56.953Z,23.53
2018-07-27T05:15:26.126Z,23.57
2018-07-27T05:17:54.624Z,23.62
2018-07-27T05:20:23.092Z,23.63
2018-07-27T05:22:52.296Z,23.65
2018-07-27T05:25:20.794Z,23.72
2018-07-27T05:27:49.237Z,23.79
2018-07-27T05:30:17.956Z,23.79
2018-07-27T05:32:46.445Z,23.82
2018-07-27T05:35:15.261Z,23.87
2018-07-27T05:37:43.992Z,23.93
2018-07-27T05:40:12.461Z,24.00
2018-07-27T05:42:41.374Z,24.06
2018-07-27T05:45:09.925Z,24.11
2018-07-27T05:47:38.748Z,24.13
2018-07-27T05:50:07.741Z,24.14
2018-07-27T05:52:36.414Z,24.17
2018-07-27T05:55:05.498Z,24.27
2018-07-27T05:57:34.349Z,24.30
2018-07-27T06:00:03.408Z,24.39
2018-07-27T06:02:31.933Z,24.50
2018-07-27T06:05:00.593Z,24.56
2018-07-27T06:07:29.448Z,24.65
2018-07-27T06:09:58.821Z,24.75
2018-07-27T06:12:27.597Z,24.79
2018-07-27T06:14:56.461Z,24.85
2018-07-27T06:17:25.053Z,24.92
2018-07-27T06:19:53.714Z,24.99
2018-07-27T06:22:22.349Z,25.07
2018-07-27T06:24:53.040Z,25.15
2018-07-27T06:27:21.859Z,25.22
2018-07-27T06:29:51.323Z,25.32
2018-07-27T06:32:20.786Z,25.39
2018-07-27T06:34:51.525Z,25.47
2018-07-27T06:37:20.520Z,25.46
2018-07-27T06:39:48.961Z,25.51
2018-07-27T06:42:17.802Z,25.55
2018-07-27T06:44:46.769Z,25.65
2018-07-27T06:47:15.232Z,25.67
2018-07-27T06:49:43.872Z,25.71
2018-07-27T06:52:12.401Z,25.78
2018-07-27T06:54:41.116Z,25.82
2018-07-27T06:57:10.014Z,25.87
2018-07-27T06:59:39.033Z,25.92
2018-07-27T07:02:08.390Z,25.95
2018-07-27T07:04:36.932Z,26.01
2018-07-27T07:07:05.637Z,26.06
2018-07-27T07:09:34.102Z,26.12
2018-07-27T07:12:03.376Z,26.22
2018-07-27T07:14:32.003Z,26.33
2018-07-27T07:17:00.423Z,26.44
2018-07-27T07:19:29.294Z,26.58
2018-07-27T07:21:57.888Z,26.72
2018-07-27T07:24:26.542Z,26.90
2018-07-27T07:26:55.205Z,27.11
2018-07-27T07:29:23.933Z,27.37
2018-07-27T07:31:52.395Z,27.67
2018-07-27T07:34:20.853Z,28.12
2018-07-27T07:36:49.667Z,28.76
2018-07-27T07:39:18.808Z,29.48
2018-07-27T07:41:47.477Z,30.22
2018-07-27T07:44:17.612Z,30.87
2018-07-27T07:46:46.533Z,31.44
2018-07-27T07:49:15.094Z,32.00
2018-07-27T07:51:43.573Z,32.34
2018-07-27T07:54:12.007Z,32.64
2018-07-27T07:56:40.921Z,32.98
2018-07-27T07:59:09.393Z,33.26
2018-07-27T08:01:37.876Z,33.48
2018-07-27T08:04:06.897Z,33.65
2018-07-27T08:06:35.443Z,33.79
2018-07-27T08:09:05.122Z,34.05
2018-07-27T08:11:33.639Z,34.32
2018-07-27T08:14:02.246Z,34.52
2018-07-27T08:16:30.969Z,34.45
2018-07-27T08:18:59.689Z,34.60
2018-07-27T08:21:28.788Z,34.75
2018-07-27T08:23:57.662Z,35.09
2018-07-27T08:26:45.314Z,35.12
2018-07-27T08:29:15.242Z,35.30
2018-07-27T08:31:44.937Z,35.54
2018-07-27T08:34:14.720Z,35.71
2018-07-27T08:36:43.248Z,35.58
2018-07-27T08:39:13.649Z,35.51
2018-07-27T08:41:42.819Z,35.67
2018-07-27T08:44:12.659Z,35.86
2018-07-27T08:46:41.681Z,36.09
2018-07-27T08:49:10.985Z,36.13
2018-07-27T08:51:39.708Z,36.13
2018-07-27T08:54:08.554Z,36.17
2018-07-27T08:56:37.492Z,36.31
2018-07-27T08:59:06.497Z,36.36
2018-07-27T09:01:35.030Z,36.33
2018-07-27T09:04:03.590Z,36.43
2018-07-27T09:06:32.108Z,36.56
2018-07-27T09:09:00.708Z,36.73
2018-07-27T09:11:29.817Z,36.86
2018-07-27T09:13:58.486Z,36.98
2018-07-27T09:16:26.955Z,37.21
2018-07-27T09:18:55.707Z,37.27
2018-07-27T09:21:24.234Z,37.26
2018-07-27T09:23:52.720Z,37.50
2018-07-27T09:26:21.853Z,37.73
2018-07-27T09:28:50.353Z,37.71
2018-07-27T09:31:18.885Z,37.72
2018-07-27T09:33:48.025Z,37.76
2018-07-27T09:36:16.625Z,37.75
2018-07-27T09:38:45.341Z,37.66
2018-07-27T09:41:13.969Z,37.67
2018-07-27T09:43:42.685Z,37.77
2018-07-27T09:46:11.177Z,37.97
2018-07-27T09:48:39.937Z,38.12
2018-07-27T09:51:08.569Z,38.35
2018-07-27T09:53:37.077Z,38.18
2018-07-27T09:56:05.765Z,38.07
2018-07-27T09:58:34.213Z,37.88
2018-07-27T10:01:07.894Z,38.03
2018-07-27T10:03:36.369Z,38.07
2018-07-27T10:06:04.866Z,38.12
2018-07-27T10:08:33.897Z,38.33
2018-07-27T10:11:02.646Z,38.64
2018-07-27T10:13:31.108Z,39.00
2018-07-27T10:16:00.263Z,39.19
2018-07-27T10:18:28.712Z,39.39
2018-07-27T10:20:57.758Z,39.47
2018-07-27T10:23:27.001Z,39.53
2018-07-27T10:25:55.425Z,39.47
2018-07-27T10:28:23.946Z,39.53
2018-07-27T10:30:53.056Z,39.54
2018-07-27T10:33:21.641Z,39.73
2018-07-27T10:35:50.549Z,39.83
2018-07-27T10:38:19.956Z,39.91
2018-07-27T10:40:48.529Z,39.91
2018-07-27T10:43:16.985Z,39.88
2018-07-27T10:45:46.047Z,40.08
2018-07-27T10:48:14.624Z,40.20
2018-07-27T10:50:43.218Z,40.13
2018-07-27T10:53:12.407Z,40.09
2018-07-27T10:55:41.349Z,40.16
2018-07-27T10:58:09.926Z,40.13
2018-07-27T11:00:38.602Z,40.15
2018-07-27T11:03:07.111Z,40.01
2018-07-27T11:05:35.828Z,40.11
2018-07-27T11:08:04.585Z,40.42
2018-07-27T11:10:33.045Z,40.59
2018-07-27T11:13:01.490Z,40.65
2018-07-27T11:15:30.622Z,40.33
2018-07-27T11:17:59.074Z,40.21
2018-07-27T11:20:28.269Z,40.14
2018-07-27T11:22:57.069Z,40.13
2018-07-27T11:25:25.585Z,40.28
2018-07-27T11:27:54.046Z,40.27
2018-07-27T11:30:23.715Z,40.27
2018-07-27T11:32:52.195Z,40.17
2018-07-27T11:35:20.661Z,40.15
2018-07-27T11:37:49.390Z,40.42
2018-07-27T11:40:18.149Z,40.44
2018-07-27T11:42:46.610Z,39.95
2018-07-27T11:45:15.310Z,39.62
2018-07-27T11:47:43.785Z,39.55
2018-07-27T11:50:12.417Z,39.84
2018-07-27T11:52:41.829Z,40.12
2018-07-27T11:55:10.338Z,40.12
2018-07-27T11:57:38.868Z,39.91
2018-07-27T12:00:08.285Z,39.66
2018-07-27T12:02:36.748Z,39.72
2018-07-27T12:05:05.280Z,39.89
2018-07-27T12:07:34.233Z,39.90
2018-07-27T12:10:03.729Z,39.68
2018-07-27T12:12:32.193Z,39.64
2018-07-27T12:15:01.410Z,39.86
2018-07-27T12:17:29.684Z,40.21
2018-07-27T12:19:58.792Z,40.41
2018-07-27T12:22:28.261Z,40.44
2018-07-27T12:24:56.761Z,40.62
2018-07-27T12:27:25.212Z,40.90
2018-07-27T12:29:54.622Z,41.18
2018-07-27T12:32:23.558Z,41.44
2018-07-27T12:34:52.258Z,41.54
2018-07-27T12:37:21.533Z,41.63
2018-07-27T12:39:50.245Z,41.38
2018-07-27T12:42:19.071Z,41.08
2018-07-27T12:44:48.145Z,41.25
2018-07-27T12:47:16.585Z,41.04
2018-07-27T12:49:45.086Z,41.12
2018-07-27T12:52:13.793Z,41.36
2018-07-27T12:54:42.245Z,41.42
2018-07-27T12:57:10.677Z,41.16
2018-07-27T12:59:39.937Z,41.04
2018-07-27T13:02:08.413Z,40.74
2018-07-27T13:04:37.241Z,40.80
2018-07-27T13:07:05.909Z,40.76
2018-07-27T13:09:34.349Z,40.63
2018-07-27T13:12:02.803Z,40.71
2018-07-27T13:14:31.674Z,40.71
2018-07-27T13:17:00.142Z,41.03
2018-07-27T13:19:28.585Z,41.29
2018-07-27T13:21:57.361Z,41.37
2018-07-27T13:26:54.319Z,41.42
2018-07-27T13:29:23.382Z,41.78
2018-07-27T13:31:53.129Z,41.85
2018-07-27T13:34:40.657Z,42.34
2018-07-27T13:37:09.245Z,42.26
2018-07-27T13:39:38.297Z,42.11
2018-07-27T13:42:07.961Z,42.39
2018-07-27T13:44:37.671Z,42.51
2018-07-27T13:47:06.681Z,42.57
2018-07-27T13:49:35.902Z,42.55
2018-07-27T13:52:04.468Z,42.72
2018-07-27T13:54:34.013Z,42.86
2018-07-27T13:57:03.041Z,42.99
2018-07-27T13:59:31.533Z,43.23
2018-07-27T14:01:59.973Z,43.57
2018-07-27T14:04:29.184Z,43.76
2018-07-27T14:06:58.926Z,43.61
2018-07-27T14:09:27.367Z,43.57
2018-07-27T14:11:56.151Z,43.54
2018-07-27T14:14:24.771Z,43.80
2018-07-27T14:16:53.318Z,43.93
2018-07-27T14:19:22.530Z,44.11
2018-07-27T14:21:51.042Z,44.16
2018-07-27T14:24:19.805Z,44.07
2018-07-27T14:26:48.640Z,43.97
2018-07-27T14:29:17.201Z,44.21
2018-07-27T14:31:45.690Z,44.27
2018-07-27T14:34:14.591Z,43.91
2018-07-27T14:36:43.041Z,43.96
2018-07-27T14:39:14.430Z,43.97
2018-07-27T14:41:43.379Z,43.94
2018-07-27T14:44:11.912Z,43.58
2018-07-27T14:46:40.990Z,43.70
2018-07-27T14:49:16.882Z,43.94
2018-07-27T14:51:45.488Z,44.07
2018-07-27T14:54:14.988Z,44.20
2018-07-27T14:56:43.957Z,44.26
2018-07-27T14:59:12.828Z,44.29
2018-07-27T15:01:41.746Z,44.10
2018-07-27T15:04:11.450Z,44.27
2018-07-27T15:06:40.270Z,44.09
2018-07-27T15:09:13.642Z,44.07
2018-07-27T15:11:42.590Z,43.94
2018-07-27T15:14:11.105Z,44.11
2018-07-27T15:16:40.102Z,44.14
2018-07-27T15:19:08.997Z,44.31
2018-07-27T15:21:37.460Z,44.26
2018-07-27T15:24:09.229Z,44.31
2018-07-27T15:26:37.793Z,44.34
2018-07-27T15:29:06.373Z,44.05
2018-07-27T15:31:35.182Z,43.82
2018-07-27T15:34:03.699Z,43.31
2018-07-27T15:36:32.527Z,43.29
2018-07-27T15:39:01.178Z,43.45
2018-07-27T15:41:29.662Z,43.46
2018-07-27T15:43:58.189Z,43.14
2018-07-27T15:46:27.390Z,42.81
2018-07-27T15:48:56.573Z,42.59
2018-07-27T15:51:25.065Z,42.06
2018-07-27T15:53:54.673Z,42.05
2018-07-27T15:56:23.168Z,42.09
2018-07-27T15:58:51.629Z,42.00
2018-07-27T16:01:20.496Z,42.04
2018-07-27T16:03:49.752Z,42.23
2018-07-27T16:06:18.202Z,42.41
2018-07-27T16:08:47.105Z,42.61
2018-07-27T16:11:16.172Z,42.73
2018-07-27T16:13:44.638Z,42.15
2018-07-27T16:16:13.625Z,41.94
2018-07-27T16:18:42.113Z,41.99
2018-07-27T16:21:10.557Z,41.95
2018-07-27T16:23:39.838Z,41.95
2018-07-27T16:26:08.321Z,41.77
2018-07-27T16:28:37.234Z,41.71
2018-07-27T16:31:05.929Z,41.52
2018-07-27T16:33:34.424Z,41.45
2018-07-27T16:36:02.877Z,41.33
2018-07-27T16:38:31.677Z,41.07
2018-07-27T16:41:00.325Z,41.06
2018-07-27T16:43:28.813Z,41.11
2018-07-27T16:45:58.915Z,41.07
2018-07-27T16:48:27.405Z,40.93
2018-07-27T16:50:56.492Z,40.87
2018-07-27T16:53:25.584Z,40.64
2018-07-27T16:55:54.580Z,40.63
2018-07-27T16:58:23.029Z,40.58
2018-07-27T17:00:51.657Z,40.48
2018-07-27T17:03:20.719Z,40.39
2018-07-27T17:05:49.212Z,40.31
2018-07-27T17:08:18.313Z,40.02
2018-07-27T17:10:47.501Z,39.88
2018-07-27T17:13:16.051Z,39.52
2018-07-27T17:15:44.978Z,39.03
2018-07-27T17:18:13.470Z,38.28
2018-07-27T17:20:42.210Z,37.43
2018-07-27T17:23:12.231Z,36.79
2018-07-27T17:25:40.918Z,36.21
2018-07-27T17:28:09.289Z,35.62
2018-07-27T17:30:38.009Z,35.21
2018-07-27T17:33:06.491Z,34.85
2018-07-27T17:35:34.931Z,34.49
2018-07-27T17:38:04.387Z,34.17
2018-07-27T17:40:32.941Z,33.76
2018-07-27T17:43:01.427Z,33.33
2018-07-27T17:45:30.316Z,32.94
2018-07-27T17:47:59.828Z,32.69
2018-07-27T17:50:29.037Z,32.47
2018-07-27T17:52:59.424Z,32.26
2018-07-27T17:55:28.308Z,32.02
2018-07-27T17:57:57.001Z,31.84
2018-07-27T18:00:26.295Z,31.67
2018-07-27T18:02:55.071Z,31.49
2018-07-27T18:05:24.165Z,31.31
2018-07-27T18:07:53.003Z,31.21
2018-07-27T18:10:22.110Z,31.02
2018-07-27T18:12:51.207Z,30.84
2018-07-27T18:15:20.217Z,30.71
2018-07-27T18:17:49.005Z,30.56
2018-07-27T18:20:17.489Z,30.42
2018-07-27T18:22:46.615Z,30.29
2018-07-27T18:25:16.656Z,30.23
2018-07-27T18:27:45.953Z,30.17
2018-07-27T18:30:15.068Z,30.13
2018-07-27T18:32:43.549Z,30.04
2018-07-27T18:35:11.989Z,29.96
2018-07-27T18:37:41.123Z,29.86
2018-07-27T18:40:10.145Z,29.75
2018-07-27T18:42:38.737Z,29.63
2018-07-27T18:45:08.198Z,29.50
2018-07-27T18:47:36.771Z,29.39
2018-07-27T18:50:06.328Z,29.30
2018-07-27T18:52:36.297Z,29.16
2018-07-27T18:55:05.620Z,29.00
2018-07-27T18:57:34.134Z,28.85
2018-07-27T19:00:03.694Z,28.75
2018-07-27T19:02:33.061Z,28.61
2018-07-27T19:05:01.516Z,28.53
2018-07-27T19:07:30.134Z,28.38
2018-07-27T19:09:58.624Z,28.24
2018-07-27T19:12:27.068Z,28.20
2018-07-27T19:14:56.070Z,28.16
2018-07-27T19:17:24.561Z,28.07
2018-07-27T19:19:52.977Z,27.99
2018-07-27T19:22:22.126Z,27.92
2018-07-27T19:24:50.974Z,27.86
2018-07-27T19:27:19.401Z,27.73
2018-07-27T19:29:47.997Z,27.66
2018-07-27T19:32:16.681Z,27.58
2018-07-27T19:34:45.349Z,27.47
2018-07-27T19:37:14.545Z,27.35
2018-07-27T19:39:43.069Z,27.16
2018-07-27T19:42:11.790Z,27.06
2018-07-27T19:44:40.584Z,26.94
2018-07-27T19:47:09.389Z,26.83
2018-07-27T19:49:38.089Z,26.72
2018-07-27T19:52:07.535Z,26.67
2018-07-27T19:54:36.018Z,26.58
2018-07-27T19:57:04.493Z,26.47
2018-07-27T19:59:33.586Z,26.42
2018-07-27T20:02:02.781Z,26.36
2018-07-27T20:04:31.222Z,26.32
2018-07-27T20:07:00.306Z,26.24
2018-07-27T20:09:28.788Z,26.17
2018-07-27T20:11:57.446Z,26.14
2018-07-27T20:14:26.091Z,26.06
2018-07-27T20:16:54.857Z,25.99
2018-07-27T20:19:23.310Z,25.95
2018-07-27T20:21:52.025Z,25.88
2018-07-27T20:24:20.561Z,25.83
2018-07-27T20:26:49.172Z,25.76
2018-07-27T20:29:18.151Z,25.73
2018-07-27T20:31:46.640Z,25.71
2018-07-27T20:34:15.067Z,25.64
2018-07-27T20:36:44.157Z,25.58
2018-07-27T20:39:14.241Z,25.47
2018-07-27T20:41:43.781Z,25.39
2018-07-27T20:44:12.573Z,25.35
2018-07-27T20:46:41.329Z,25.29
2018-07-27T20:49:10.180Z,25.23
2018-07-27T20:51:39.537Z,25.21
2018-07-27T20:54:08.601Z,25.16
2018-07-27T20:56:37.079Z,25.11
2018-07-27T20:59:06.354Z,24.96
2018-07-27T21:01:35.277Z,25.01
2018-07-27T21:04:03.948Z,25.00
2018-07-27T21:06:32.993Z,24.94
2018-07-27T21:09:01.485Z,24.92
2018-07-27T21:11:30.201Z,24.87
2018-07-27T21:14:00.288Z,24.82
2018-07-27T21:16:29.647Z,24.75
2018-07-27T21:18:58.437Z,24.70
2018-07-27T21:21:27.127Z,24.68
2018-07-27T21:23:55.654Z,24.61
2018-07-27T21:26:24.117Z,24.59
2018-07-27T21:28:53.043Z,24.64
2018-07-27T21:31:21.544Z,24.69
2018-07-27T21:33:49.978Z,24.67
2018-07-27T21:36:18.586Z,24.61
2018-07-27T21:38:47.096Z,24.56
2018-07-27T21:41:15.500Z,24.54
2018-07-27T21:43:44.570Z,24.51
2018-07-27T21:46:13.410Z,24.44
2018-07-27T21:48:41.881Z,24.38
2018-07-27T21:51:11.540Z,24.28
2018-07-27T21:53:40.028Z,24.24
2018-07-27T21:56:08.636Z,24.21
2018-07-27T21:58:37.843Z,24.15
2018-07-27T22:01:06.330Z,24.07
2018-07-27T22:03:34.954Z,24.01
2018-07-27T22:06:03.899Z,23.99
2018-07-27T22:08:32.411Z,23.93
2018-07-27T22:11:00.898Z,23.88
2018-07-27T22:13:30.618Z,23.87
2018-07-27T22:15:59.417Z,23.80
2018-07-27T22:18:28.053Z,23.81
2018-07-27T22:20:57.300Z,23.80
2018-07-27T22:23:26.173Z,23.81
2018-07-27T22:25:54.632Z,23.78
2018-07-27T22:28:23.601Z,23.77
2018-07-27T22:30:52.115Z,23.74
2018-07-27T22:33:20.801Z,23.75
2018-07-27T22:35:50.334Z,23.73
2018-07-27T22:38:18.859Z,23.75
2018-07-27T22:40:47.354Z,23.65
2018-07-27T22:43:16.565Z,23.58
2018-07-27T22:45:45.076Z,23.58
2018-07-27T22:48:13.525Z,23.57
2018-07-27T22:50:42.691Z,23.58
2018-07-27T22:53:11.185Z,23.58
2018-07-27T22:55:39.984Z,23.55
2018-07-27T22:58:09.049Z,23.47
2018-07-27T23:00:37.545Z,23.44
2018-07-27T23:03:06.337Z,23.42
2018-07-27T23:05:35.122Z,23.41
2018-07-27T23:08:03.672Z,23.37
2018-07-27T23:10:32.092Z,23.37
2018-07-27T23:13:01.777Z,23.36
2018-07-27T23:15:30.377Z,23.33
2018-07-27T23:17:58.833Z,23.21
2018-07-27T23:20:27.662Z,23.11
2018-07-27T23:22:56.426Z,23.04
2018-07-27T23:25:24.859Z,22.94
2018-07-27T23:27:53.842Z,22.93
2018-07-27T23:30:22.313Z,22.94
2018-07-27T23:32:50.784Z,22.91
2018-07-27T23:35:20.869Z,22.87
2018-07-27T23:37:49.494Z,22.76
2018-07-27T23:40:18.149Z,22.76
2018-07-27T23:42:47.541Z,22.79
2018-07-27T23:45:22.605Z,22.82
2018-07-27T23:47:51.734Z,22.76
2018-07-27T23:50:20.211Z,22.73
2018-07-27T23:52:48.718Z,22.71
2018-07-27T23:55:17.721Z,22.66
2018-07-27T23:57:46.614Z,22.65
